createdAt,value
2018-09-04T00:01:57.019Z,102074.98
2018-09-04T00:04:26.382Z,102076.28
2018-09-04T00:06:55.476Z,102065.66
2018-09-04T00:09:24.434Z,102064.74
2018-09-04T00:11:53.440Z,102064.77
2018-09-04T00:14:22.856Z,102064.32
2018-09-04T00:16:51.820Z,102062.12
2018-09-04T00:19:20.760Z,102063.06
2018-09-04T00:21:49.689Z,102058.62
2018-09-04T00:24:18.817Z,102064.41
2018-09-04T00:26:47.865Z,102059.00
2018-09-04T00:29:16.900Z,102060.22
2018-09-04T00:31:46.274Z,102057.97
2018-09-04T00:34:15.415Z,102053.56
2018-09-04T00:36:44.655Z,102054.05
2018-09-04T00:39:13.662Z,101941.68
2018-09-04T00:41:42.604Z,102054.98
2018-09-04T00:44:11.454Z,102053.16
2018-09-04T00:46:40.407Z,102057.55
2018-09-04T00:49:09.357Z,102062.95
2018-09-04T00:51:38.640Z,102057.70
2018-09-04T00:54:07.634Z,102057.67
2018-09-04T00:56:36.651Z,102054.61
2018-09-04T00:59:06.550Z,102048.84
2018-09-04T01:01:35.473Z,102053.31
2018-09-04T01:04:04.631Z,102054.70
2018-09-04T01:06:33.642Z,102054.73
2018-09-04T01:09:02.980Z,102057.81
2018-09-04T01:11:32.023Z,102054.29
2018-09-04T01:14:01.889Z,102053.86
2018-09-04T01:16:30.929Z,102055.17
2018-09-04T01:18:59.985Z,102048.09
2018-09-04T01:21:29.069Z,102055.20
2018-09-04T01:23:57.967Z,102060.56
2018-09-04T01:26:27.256Z,102060.56
2018-09-04T01:28:56.381Z,102062.30
2018-09-04T01:31:25.461Z,102061.47
2018-09-04T01:33:54.906Z,102060.59
2018-09-04T01:36:23.977Z,102060.59
2018-09-04T01:38:53.045Z,102060.14
2018-09-04T01:41:22.013Z,102065.51
2018-09-04T01:43:51.243Z,102056.21
2018-09-04T01:46:20.214Z,102060.20
2018-09-04T01:48:50.770Z,102062.88
2018-09-04T01:51:19.682Z,102054.50
2018-09-04T01:53:48.855Z,102058.89
2018-09-04T01:56:17.944Z,102058.48
2018-09-04T01:58:46.917Z,102058.04
2018-09-04T02:01:15.865Z,102058.06
2018-09-04T02:03:44.851Z,102058.05
2018-09-04T02:06:13.692Z,102062.49
2018-09-04T02:08:42.685Z,102063.42
2018-09-04T02:11:11.822Z,102063.86
2018-09-04T02:13:40.739Z,102058.98
2018-09-04T02:16:09.920Z,102065.20
2018-09-04T02:18:38.897Z,102056.81
2018-09-04T02:21:07.887Z,102061.29
2018-09-04T02:23:36.780Z,102059.97
2018-09-04T02:26:06.144Z,102061.75
2018-09-04T02:28:35.109Z,102055.55
2018-09-04T02:31:04.396Z,102052.01
2018-09-04T02:33:33.286Z,102052.89
2018-09-04T02:36:02.592Z,102048.95
2018-09-04T02:38:31.563Z,102046.30
2018-09-04T02:41:00.473Z,102049.39
2018-09-04T02:43:29.441Z,102042.73
2018-09-04T02:45:58.456Z,102037.42
2018-09-04T02:48:27.350Z,102043.19
2018-09-04T02:50:56.422Z,102038.77
2018-09-04T02:53:25.413Z,102030.80
2018-09-04T02:55:54.292Z,102033.91
2018-09-04T02:58:23.713Z,102035.23
2018-09-04T03:00:52.657Z,102028.20
2018-09-04T03:03:21.915Z,102029.98
2018-09-04T03:05:50.875Z,102039.72
2018-09-04T03:08:19.716Z,102025.12
2018-09-04T03:10:48.872Z,102025.55
2018-09-04T03:13:18.043Z,102022.90
2018-09-04T03:15:47.062Z,102025.58
2018-09-04T03:18:16.392Z,102024.23
2018-09-04T03:20:45.609Z,102020.27
2018-09-04T03:23:14.663Z,102021.14
2018-09-04T03:25:43.464Z,102018.05
2018-09-04T03:28:12.377Z,102015.84
2018-09-04T03:30:41.314Z,102018.52
2018-09-04T03:33:10.309Z,102019.41
2018-09-04T03:35:39.179Z,102016.31
2018-09-04T03:38:08.839Z,102014.54
2018-09-04T03:40:37.762Z,102016.78
2018-09-04T03:43:07.461Z,102015.88
2018-09-04T03:45:36.487Z,102012.34
2018-09-04T03:48:06.144Z,102018.52
2018-09-04T03:50:35.037Z,102016.77
2018-09-04T03:53:04.002Z,102014.98
2018-09-04T03:55:32.846Z,102011.47
2018-09-04T03:58:01.825Z,102011.47
2018-09-04T04:00:30.850Z,102019.39
2018-09-04T04:02:59.854Z,102010.55
2018-09-04T04:05:28.767Z,102010.55
2018-09-04T04:07:57.632Z,102010.55
2018-09-04T04:10:26.613Z,102006.58
2018-09-04T04:12:55.626Z,102014.08
2018-09-04T04:15:24.622Z,102014.54
2018-09-04T04:17:53.484Z,102002.66
2018-09-04T04:20:23.403Z,102011.49
2018-09-04T04:22:52.717Z,102018.58
2018-09-04T04:25:22.016Z,102017.70
2018-09-04T04:27:51.116Z,102015.92
2018-09-04T04:33:08.007Z,102017.72
2018-09-04T04:35:36.943Z,102019.47
2018-09-04T04:38:06.321Z,102017.70
2018-09-04T04:40:35.944Z,102018.58
2018-09-04T04:43:05.068Z,102014.14
2018-09-04T04:45:34.288Z,102011.52
2018-09-04T04:48:03.882Z,102011.50
2018-09-04T04:50:32.773Z,102008.84
2018-09-04T04:53:01.717Z,102010.17
2018-09-04T04:55:30.829Z,102011.50
2018-09-04T04:57:59.915Z,102008.87
2018-09-04T05:00:29.029Z,102011.95
2018-09-04T05:02:57.911Z,102008.85
2018-09-04T05:05:26.931Z,102009.74
2018-09-04T05:07:55.841Z,102011.09
2018-09-04T05:10:24.984Z,101659.83
2018-09-04T05:12:54.001Z,102013.27
2018-09-04T05:15:23.030Z,102019.48
2018-09-04T05:17:52.181Z,102014.14
2018-09-04T05:20:23.500Z,102015.92
2018-09-04T05:22:52.716Z,102010.61
2018-09-04T05:25:21.856Z,102012.81
2018-09-04T05:27:51.403Z,102012.80
2018-09-04T05:30:20.345Z,102007.95
2018-09-04T05:32:54.160Z,102005.31
2018-09-04T05:35:23.254Z,102010.62
2018-09-04T05:37:52.268Z,102014.13
2018-09-04T05:40:21.165Z,102006.17
2018-09-04T05:42:54.071Z,102012.80
2018-09-04T05:45:24.683Z,102011.48
2018-09-04T05:47:58.688Z,102015.00
2018-09-04T05:50:27.689Z,102009.23
2018-09-04T05:52:56.654Z,102006.13
2018-09-04T05:55:25.670Z,102014.06
2018-09-04T05:57:54.672Z,102010.48
2018-09-04T06:00:29.174Z,102012.66
2018-09-04T06:02:58.144Z,102015.72
2018-09-04T06:05:27.058Z,102013.94
2018-09-04T06:07:56.014Z,102017.94
2018-09-04T06:10:25.020Z,102012.14
2018-09-04T06:12:54.156Z,102011.24
2018-09-04T06:15:23.088Z,102013.85
2018-09-04T06:17:59.967Z,102018.27
2018-09-04T06:20:29.010Z,102014.67
2018-09-04T06:22:58.410Z,102008.43
2018-09-04T06:25:27.366Z,102013.73
2018-09-04T06:27:56.542Z,102015.41
2018-09-04T06:30:25.715Z,101896.83
2018-09-04T06:32:54.599Z,102015.38
2018-09-04T06:35:23.464Z,102011.38
2018-09-04T06:37:52.315Z,102014.02
2018-09-04T06:40:21.286Z,102016.22
2018-09-04T06:42:50.421Z,102022.48
2018-09-04T06:45:20.337Z,102017.13
2018-09-04T06:47:49.524Z,102016.25
2018-09-04T06:50:18.659Z,102017.52
2018-09-04T06:52:47.633Z,102012.61
2018-09-04T06:55:16.586Z,102012.20
2018-09-04T06:57:45.457Z,102009.09
2018-09-04T07:00:14.979Z,102034.80
2018-09-04T07:02:44.107Z,102014.44
2018-09-04T07:05:13.184Z,102026.37
2018-09-04T07:07:42.563Z,102027.70
2018-09-04T07:10:11.491Z,102027.67
2018-09-04T07:12:40.556Z,102018.81
2018-09-04T07:15:09.560Z,102026.34
2018-09-04T07:17:38.514Z,102028.12
2018-09-04T07:20:07.748Z,102032.98
2018-09-04T07:22:36.734Z,102033.40
2018-09-04T07:25:06.129Z,102029.39
2018-09-04T07:27:35.106Z,102030.16
2018-09-04T07:30:04.242Z,102032.77
2018-09-04T07:32:33.175Z,102034.06
2018-09-04T07:35:02.160Z,102032.72
2018-09-04T07:37:31.405Z,102030.02
2018-09-04T07:40:00.321Z,102033.48
2018-09-04T07:42:29.320Z,102029.39
2018-09-04T07:44:58.184Z,102029.31
2018-09-04T07:47:27.303Z,102030.55
2018-09-04T07:49:56.256Z,102032.36
2018-09-04T07:52:25.383Z,102035.38
2018-09-04T07:54:54.269Z,102039.73
2018-09-04T07:57:23.193Z,102035.70
2018-09-04T07:59:52.531Z,102038.84
2018-09-04T08:02:21.524Z,102037.89
2018-09-04T08:04:50.666Z,102037.02
2018-09-04T08:07:19.550Z,102036.48
2018-09-04T08:09:48.698Z,102035.41
2018-09-04T08:12:17.672Z,102033.47
2018-09-04T08:14:46.762Z,102029.64
2018-09-04T08:17:15.781Z,102022.47
2018-09-04T08:19:44.619Z,102022.21
2018-09-04T08:22:13.517Z,102021.02
2018-09-04T08:24:42.398Z,102018.22
2018-09-04T08:27:11.621Z,102007.21
2018-09-04T08:29:40.534Z,102002.45
2018-09-04T08:32:09.432Z,101999.80
2018-09-04T08:34:38.370Z,101997.83
2018-09-04T08:37:07.574Z,101996.37
2018-09-04T08:39:36.461Z,101997.55
2018-09-04T08:42:05.588Z,102001.67
2018-09-04T08:44:34.650Z,102005.71
2018-09-04T08:47:05.004Z,102008.48
2018-09-04T08:49:34.273Z,102005.71
2018-09-04T08:52:03.172Z,102001.81
2018-09-04T08:54:32.122Z,102000.31
2018-09-04T08:57:01.121Z,102006.84
2018-09-04T08:59:30.350Z,102010.15
2018-09-04T09:01:59.567Z,102013.58
2018-09-04T09:04:28.448Z,102010.46
2018-09-04T09:06:57.440Z,102005.71
2018-09-04T09:09:26.320Z,102007.39
2018-09-04T09:11:55.154Z,102002.66
2018-09-04T09:14:24.064Z,102000.62
2018-09-04T09:16:52.897Z,102003.66
2018-09-04T09:19:22.035Z,102001.55
2018-09-04T09:21:51.185Z,101998.27
2018-09-04T09:24:20.116Z,101995.99
2018-09-04T09:26:48.975Z,101999.67
2018-09-04T09:29:18.403Z,101989.03
2018-09-04T09:31:47.474Z,101995.34
2018-09-04T09:34:16.366Z,101988.70
2018-09-04T09:36:45.545Z,101986.98
2018-09-04T09:39:14.433Z,101984.14
2018-09-04T09:41:43.358Z,101990.87
2018-09-04T09:44:12.233Z,101987.55
2018-09-04T09:46:41.053Z,101982.58
2018-09-04T09:49:10.205Z,101975.23
2018-09-04T09:51:39.510Z,101979.41
2018-09-04T09:54:08.480Z,101976.67
2018-09-04T09:56:37.385Z,101971.62
2018-09-04T09:59:06.365Z,101971.55
2018-09-04T10:01:40.506Z,101975.87
2018-09-04T10:04:09.851Z,101968.86
2018-09-04T10:06:38.807Z,101972.66
2018-09-04T10:09:08.801Z,101975.22
2018-09-04T10:11:37.882Z,101966.26
2018-09-04T10:14:06.974Z,101967.86
2018-09-04T10:16:35.925Z,101968.25
2018-09-04T10:19:04.965Z,101969.63
2018-09-04T10:21:33.869Z,101955.50
2018-09-04T10:24:03.195Z,101954.50
2018-09-04T10:26:32.181Z,101952.67
2018-09-04T10:29:01.017Z,101950.06
2018-09-04T10:31:30.056Z,101950.06
2018-09-04T10:33:59.037Z,101953.60
2018-09-04T10:36:28.069Z,101953.69
2018-09-04T10:40:05.967Z,101949.49
2018-09-04T10:42:34.871Z,101954.44
2018-09-04T10:45:04.025Z,101949.03
2018-09-04T10:47:32.929Z,101945.48
2018-09-04T10:50:01.876Z,101950.05
2018-09-04T10:52:31.007Z,101943.87
2018-09-04T10:55:00.392Z,101943.48
2018-09-04T10:57:29.336Z,101942.43
2018-09-04T10:59:58.358Z,101943.69
2018-09-04T11:02:27.543Z,101946.76
2018-09-04T11:04:56.462Z,101948.92
2018-09-04T11:07:25.412Z,101948.75
2018-09-04T11:09:54.539Z,101949.72
2018-09-04T11:12:23.847Z,101946.22
2018-09-04T11:14:52.875Z,101941.81
2018-09-04T11:17:22.005Z,101939.73
2018-09-04T11:19:51.162Z,101944.94
2018-09-04T11:22:20.271Z,101943.09
2018-09-04T11:24:49.248Z,101945.41
2018-09-04T11:27:18.300Z,101946.73
2018-09-04T11:29:47.429Z,101942.64
2018-09-04T11:32:16.351Z,101939.97
2018-09-04T11:34:45.303Z,101938.20
2018-09-04T11:37:14.285Z,101936.67
2018-09-04T11:39:43.466Z,101945.25
2018-09-04T11:42:13.449Z,101939.17
2018-09-04T11:44:43.458Z,101943.05
2018-09-04T11:47:13.154Z,101943.48
2018-09-04T11:49:42.710Z,101941.28
2018-09-04T11:52:11.874Z,101945.34
2018-09-04T11:54:41.048Z,101940.88
2018-09-04T11:57:10.075Z,101938.70
2018-09-04T11:59:40.774Z,101940.51
2018-09-04T12:02:14.638Z,101937.77
2018-09-04T12:04:43.545Z,101944.05
2018-09-04T12:07:12.800Z,101940.38
2018-09-04T12:09:41.677Z,101943.87
2018-09-04T12:12:14.695Z,101942.05
2018-09-04T12:14:43.646Z,101943.95
2018-09-04T12:17:12.537Z,101945.78
2018-09-04T12:19:46.700Z,101943.05
2018-09-04T12:22:15.755Z,101942.98
2018-09-04T12:24:45.132Z,101946.35
2018-09-04T12:27:14.069Z,101946.27
2018-09-04T12:29:42.947Z,101944.58
2018-09-04T12:32:11.984Z,101940.91
2018-09-04T12:34:40.940Z,101935.53
2018-09-04T12:37:10.142Z,101940.42
2018-09-04T12:39:43.248Z,101933.12
2018-09-04T12:42:12.597Z,101932.28
2018-09-04T12:44:41.554Z,101932.14
2018-09-04T12:47:10.547Z,101934.50
2018-09-04T12:49:39.460Z,101941.69
2018-09-04T12:52:08.846Z,101939.48
2018-09-04T12:54:37.779Z,101935.98
2018-09-04T12:57:06.788Z,101934.64
2018-09-04T12:59:35.692Z,101933.69
2018-09-04T13:02:04.933Z,101929.55
2018-09-04T13:04:33.849Z,101932.13
2018-09-04T13:07:02.776Z,101922.09
2018-09-04T13:09:31.753Z,101919.03
2018-09-04T13:12:00.738Z,101910.69
2018-09-04T13:14:29.763Z,101915.02
2018-09-04T13:17:02.730Z,101912.28
2018-09-04T13:19:31.903Z,101911.86
2018-09-04T13:22:02.183Z,101910.02
2018-09-04T13:24:31.338Z,101909.44
2018-09-04T13:27:00.283Z,101910.61
2018-09-04T13:29:29.607Z,101910.56
2018-09-04T13:31:59.231Z,101908.84
2018-09-04T13:34:28.414Z,101904.52
2018-09-04T13:36:57.404Z,101901.41
2018-09-04T13:39:26.502Z,101902.82
2018-09-04T13:41:55.816Z,101903.77
2018-09-04T13:44:25.232Z,101905.02
2018-09-04T13:46:54.243Z,101901.02
2018-09-04T13:49:23.427Z,101900.15
2018-09-04T13:51:52.470Z,101896.11
2018-09-04T13:54:21.676Z,101898.66
2018-09-04T13:56:50.667Z,101886.54
2018-09-04T13:59:19.793Z,101884.26
2018-09-04T14:01:48.999Z,101883.35
2018-09-04T14:04:17.922Z,101883.67
2018-09-04T14:06:46.778Z,101885.24
2018-09-04T14:09:15.794Z,101886.14
2018-09-04T14:11:44.789Z,101887.70
2018-09-04T14:14:13.775Z,101886.52
2018-09-04T14:16:43.581Z,101884.80
2018-09-04T14:19:11.876Z,101887.87
2018-09-04T14:21:40.874Z,101887.11
2018-09-04T14:24:09.824Z,101888.73
2018-09-04T14:26:38.954Z,101885.94
2018-09-04T14:29:08.017Z,101883.91
2018-09-04T14:31:37.041Z,101892.16
2018-09-04T14:34:05.902Z,101889.83
2018-09-04T14:36:34.919Z,101886.11
2018-09-04T14:39:05.189Z,101886.39
2018-09-04T14:41:34.070Z,101886.84
2018-09-04T14:44:02.934Z,101888.19
2018-09-04T14:46:32.001Z,101887.48
2018-09-04T14:49:00.909Z,101885.88
2018-09-04T14:51:30.917Z,101881.54
2018-09-04T14:53:59.860Z,101886.80
2018-09-04T14:56:29.005Z,101885.67
2018-09-04T14:58:58.454Z,101889.93
2018-09-04T15:01:27.435Z,101893.95
2018-09-04T15:03:56.389Z,101889.93
2018-09-04T15:06:25.437Z,101893.43
2018-09-04T15:08:54.567Z,101885.48
2018-09-04T15:11:23.540Z,101896.62
2018-09-04T15:13:52.555Z,101896.20
2018-09-04T15:16:21.459Z,101901.66
2018-09-04T15:18:50.528Z,101902.48
2018-09-04T15:21:19.831Z,101903.61
2018-09-04T15:23:48.954Z,101912.17
2018-09-04T15:26:17.995Z,101912.33
2018-09-04T15:28:47.014Z,101911.84
2018-09-04T15:31:16.308Z,101916.61
2018-09-04T15:33:45.459Z,101906.50
2018-09-04T15:36:14.460Z,101913.80
2018-09-04T15:38:43.397Z,101916.09
2018-09-04T15:41:12.514Z,101914.84
2018-09-04T15:43:41.339Z,101908.72
2018-09-04T15:46:11.283Z,101904.22
2018-09-04T15:48:40.374Z,101907.09
2018-09-04T15:51:09.182Z,101906.27
2018-09-04T15:53:38.143Z,101905.56
2018-09-04T15:56:07.068Z,101905.19
2018-09-04T15:58:36.317Z,101907.13
2018-09-04T16:01:06.536Z,101906.88
2018-09-04T16:03:35.512Z,101903.34
2018-09-04T16:06:04.497Z,101901.92
2018-09-04T16:08:33.643Z,101900.95
2018-09-04T16:11:03.144Z,101907.03
2018-09-04T16:13:32.271Z,101905.10
2018-09-04T16:16:01.561Z,101903.78
2018-09-04T16:18:30.890Z,101905.18
2018-09-04T16:21:00.085Z,101910.42
2018-09-04T16:23:29.425Z,101911.17
2018-09-04T16:25:58.735Z,101905.90
2018-09-04T16:28:27.932Z,101910.28
2018-09-04T16:30:57.190Z,101911.17
2018-09-04T16:33:26.403Z,101915.19
2018-09-04T16:35:55.227Z,101914.79
2018-09-04T16:38:24.434Z,101916.60
2018-09-04T16:40:53.711Z,101911.17
2018-09-04T16:43:23.339Z,101927.81
2018-09-04T16:45:52.429Z,101923.11
2018-09-04T16:48:22.425Z,101933.11
2018-09-04T16:50:51.615Z,101933.52
2018-09-04T16:53:21.196Z,101933.41
2018-09-04T16:55:50.602Z,101929.13
2018-09-04T16:58:19.749Z,101918.56
2018-09-04T17:00:48.997Z,101915.20
2018-09-04T17:03:18.045Z,101912.77
2018-09-04T17:05:47.493Z,101910.58
2018-09-04T17:08:16.544Z,101919.38
2018-09-04T17:10:45.626Z,101922.48
2018-09-04T17:13:14.630Z,101923.83
2018-09-04T17:15:44.091Z,101921.73
2018-09-04T17:18:13.038Z,101919.21
2018-09-04T17:20:42.064Z,101925.13
2018-09-04T17:23:10.865Z,101917.23
2018-09-04T17:25:39.733Z,101923.78
2018-09-04T17:28:09.503Z,101922.47
2018-09-04T17:30:38.611Z,101921.05
2018-09-04T17:33:07.948Z,101925.57
2018-09-04T17:35:38.006Z,101917.63
2018-09-04T17:38:07.490Z,101925.65
2018-09-04T17:40:36.470Z,101934.32
2018-09-04T17:43:05.838Z,101932.78
2018-09-04T17:45:34.881Z,101935.14
2018-09-04T17:48:04.085Z,101937.24
2018-09-04T17:50:32.971Z,101935.08
2018-09-04T17:53:04.077Z,101932.42
2018-09-04T17:55:33.001Z,101931.08
2018-09-04T17:58:02.092Z,101931.28
2018-09-04T18:00:31.282Z,101930.93
2018-09-04T18:03:01.102Z,101939.03
2018-09-04T18:05:30.102Z,101938.56
2018-09-04T18:07:59.215Z,101935.39
2018-09-04T18:10:28.161Z,101936.22
2018-09-04T18:12:57.056Z,101941.56
2018-09-04T18:15:26.241Z,101937.56
2018-09-04T18:17:55.292Z,101937.23
2018-09-04T18:20:24.438Z,101943.98
2018-09-04T18:22:53.708Z,101941.91
2018-09-04T18:25:22.936Z,101942.81
2018-09-04T18:27:52.161Z,101940.14
2018-09-04T18:30:21.418Z,101941.98
2018-09-04T18:32:50.924Z,101948.16
2018-09-04T18:35:20.309Z,101950.83
2018-09-04T18:37:49.303Z,101948.27
2018-09-04T18:40:19.063Z,101955.41
2018-09-04T18:42:48.459Z,101954.50
2018-09-04T18:45:28.459Z,101956.34
2018-09-04T18:47:57.784Z,101953.22
2018-09-04T18:50:26.994Z,101956.34
2018-09-04T18:52:56.377Z,101951.90
2018-09-04T18:55:25.780Z,101959.91
2018-09-04T18:57:55.048Z,101957.24
2018-09-04T19:00:24.818Z,101965.33
2018-09-04T19:02:54.122Z,101968.05
2018-09-04T19:05:23.463Z,101969.83
2018-09-04T19:07:52.801Z,101966.27
2018-09-04T19:10:22.130Z,101961.81
2018-09-04T19:12:51.530Z,101967.66
2018-09-04T19:15:20.822Z,101963.66
2018-09-04T19:17:50.102Z,101964.55
2018-09-04T19:20:19.556Z,101965.48
2018-09-04T19:22:49.022Z,101971.73
2018-09-04T19:25:18.326Z,101969.16
2018-09-04T19:27:47.649Z,101970.95
2018-09-04T19:30:17.311Z,101971.45
2018-09-04T19:32:46.694Z,101968.45
2018-09-04T19:35:16.327Z,101968.55
2018-09-04T19:37:45.760Z,101977.91
2018-09-04T19:40:14.976Z,101972.64
2018-09-04T19:42:44.483Z,101969.58
2018-09-04T19:45:13.965Z,101973.20
2018-09-04T19:47:43.274Z,101973.75
2018-09-04T19:50:13.345Z,101975.23
2018-09-04T19:52:42.735Z,101974.01
2018-09-04T19:55:12.812Z,101974.02
2018-09-04T19:57:42.251Z,101973.13
2018-09-04T20:00:12.148Z,101978.47
2018-09-04T20:02:41.508Z,101986.47
2018-09-04T20:05:10.917Z,101980.23
2018-09-04T20:07:40.402Z,101977.06
2018-09-04T20:10:09.743Z,101977.08
2018-09-04T20:12:39.210Z,101975.45
2018-09-04T20:15:08.396Z,101977.34
2018-09-04T20:17:37.641Z,101946.93
2018-09-04T20:20:06.889Z,101975.63
2018-09-04T20:22:35.857Z,101973.94
2018-09-04T20:25:04.970Z,101982.44
2018-09-04T20:27:34.352Z,101711.36
2018-09-04T20:30:03.670Z,101982.44
2018-09-04T20:32:32.964Z,101982.90
2018-09-04T20:35:02.330Z,101984.72
2018-09-04T20:37:31.672Z,101982.84
2018-09-04T20:40:01.001Z,101985.02
2018-09-04T20:42:30.331Z,101986.50
2018-09-04T20:44:59.444Z,101982.90
2018-09-04T20:47:28.599Z,101988.23
2018-09-04T20:49:57.842Z,101985.16
2018-09-04T20:52:27.138Z,101987.45
2018-09-04T20:54:56.446Z,101991.86
2018-09-04T20:57:25.996Z,101986.52
2018-09-04T21:00:08.464Z,101987.41
2018-09-04T21:02:48.506Z,101983.84
2018-09-04T21:05:29.255Z,101984.79
2018-09-04T21:08:15.482Z,101982.17
2018-09-04T21:10:45.374Z,101988.45
2018-09-04T21:13:15.058Z,101980.00
2018-09-04T21:15:44.381Z,101983.11
2018-09-04T21:18:13.375Z,101986.72
2018-09-04T21:20:42.629Z,101984.94
2018-09-04T21:23:11.977Z,101984.14
2018-09-04T21:25:41.164Z,101980.69
2018-09-04T21:28:10.553Z,101986.03
2018-09-04T21:30:39.841Z,101977.58
2018-09-04T21:33:09.079Z,101981.19
2018-09-04T21:35:38.397Z,101982.57
2018-09-04T21:38:07.811Z,101990.22
2018-09-04T21:40:37.116Z,101984.53
2018-09-04T21:43:06.699Z,101982.81
2018-09-04T21:45:36.042Z,101994.06
2018-09-04T21:48:05.236Z,101991.03
2018-09-04T21:50:34.467Z,101988.42
2018-09-04T21:53:03.761Z,101993.80
2018-09-04T21:55:32.916Z,101991.22
2018-09-04T21:58:02.115Z,102000.11
2018-09-04T22:00:31.683Z,101999.13
2018-09-04T22:03:00.694Z,102001.80
2018-09-04T22:05:29.874Z,101996.95
2018-09-04T22:07:59.173Z,101999.21
2018-09-04T22:10:28.498Z,101992.11
2018-09-04T22:12:57.773Z,101989.44
2018-09-04T22:15:26.912Z,101994.77
2018-09-04T22:17:56.194Z,101994.77
2018-09-04T22:20:25.547Z,101992.07
2018-09-04T22:22:54.650Z,101992.06
2018-09-04T22:25:23.845Z,101997.39
2018-09-04T22:27:53.015Z,101998.28
2018-09-04T22:30:24.982Z,101994.77
2018-09-04T22:32:54.200Z,102000.16
2018-09-04T22:35:23.500Z,101996.64
2018-09-04T22:37:52.698Z,102000.28
2018-09-04T22:40:22.036Z,101994.14
2018-09-04T22:42:51.462Z,101999.95
2018-09-04T22:45:21.149Z,102004.84
2018-09-04T22:47:50.447Z,102010.14
2018-09-04T22:50:24.788Z,102006.09
2018-09-04T22:52:53.963Z,102004.36
2018-09-04T22:55:23.190Z,102005.70
2018-09-04T22:57:52.425Z,101980.23
2018-09-04T23:00:22.064Z,102005.70
2018-09-04T23:02:51.670Z,102003.95
2018-09-04T23:05:21.179Z,102004.81
2018-09-04T23:07:50.473Z,101915.95
2018-09-04T23:10:19.739Z,102006.55
2018-09-04T23:12:48.974Z,102005.73
2018-09-04T23:15:18.198Z,102008.45
2018-09-04T23:17:47.709Z,102000.41
2018-09-04T23:20:17.012Z,102009.33
2018-09-04T23:22:46.453Z,102006.71
2018-09-04T23:25:15.850Z,102008.00
2018-09-04T23:27:45.316Z,102004.94
2018-09-04T23:30:14.480Z,102008.41
2018-09-04T23:32:45.444Z,102011.06
2018-09-04T23:35:14.778Z,102002.22
2018-09-04T23:37:43.837Z,102002.67
2018-09-04T23:40:13.226Z,102004.00
2018-09-04T23:42:42.646Z,102003.11
2018-09-04T23:45:14.551Z,102000.94
2018-09-04T23:47:44.506Z,102003.60
2018-09-04T23:50:13.808Z,101998.27
2018-09-04T23:52:43.270Z,102005.82
2018-09-04T23:55:12.652Z,101996.11
2018-09-04T23:57:42.039Z,102000.58
